sensor_id;sensor_type;location;lat;lon;timestamp;temperature;humidity
27795;DHT22;15176;50.844;4.412;2022-07-19T00:02:11;29.30;55.90
27795;DHT22;15176;50.844;4.412;2022-07-19T00:04:36;29.00;53.20
27795;DHT22;15176;50.844;4.412;2022-07-19T00:07:02;29.00;55.60
27795;DHT22;15176;50.844;4.412;2022-07-19T00:09:28;29.10;57.40
27795;DHT22;15176;50.844;4.412;2022-07-19T00:11:54;29.10;56.20
27795;DHT22;15176;50.844;4.412;2022-07-19T00:14:20;28.90;53.90
27795;DHT22;15176;50.844;4.412;2022-07-19T00:16:46;29.00;55.50
27795;DHT22;15176;50.844;4.412;2022-07-19T00:19:12;29.00;53.90
27795;DHT22;15176;50.844;4.412;2022-07-19T00:21:37;29.10;53.80
27795;DHT22;15176;50.844;4.412;2022-07-19T00:24:03;29.20;55.30
27795;DHT22;15176;50.844;4.412;2022-07-19T00:26:29;29.20;55.10
27795;DHT22;15176;50.844;4.412;2022-07-19T00:28:55;29.10;55.70
27795;DHT22;15176;50.844;4.412;2022-07-19T00:31:24;29.10;55.50
27795;DHT22;15176;50.844;4.412;2022-07-19T00:33:51;29.10;57.30
27795;DHT22;15176;50.844;4.412;2022-07-19T00:36:17;29.20;53.50
27795;DHT22;15176;50.844;4.412;2022-07-19T00:38:43;29.10;54.30
27795;DHT22;15176;50.844;4.412;2022-07-19T00:41:09;29.00;55.10
27795;DHT22;15176;50.844;4.412;2022-07-19T00:43:35;28.90;56.00
27795;DHT22;15176;50.844;4.412;2022-07-19T00:46:00;29.00;56.40
27795;DHT22;15176;50.844;4.412;2022-07-19T00:48:26;29.00;56.50
27795;DHT22;15176;50.844;4.412;2022-07-19T00:50:52;29.00;58.30
27795;DHT22;15176;50.844;4.412;2022-07-19T00:53:18;29.00;55.40
27795;DHT22;15176;50.844;4.412;2022-07-19T00:55:45;29.10;53.20
27795;DHT22;15176;50.844;4.412;2022-07-19T00:58:11;29.00;56.80
27795;DHT22;15176;50.844;4.412;2022-07-19T01:00:39;29.00;54.10
27795;DHT22;15176;50.844;4.412;2022-07-19T01:03:06;29.10;55.00
27795;DHT22;15176;50.844;4.412;2022-07-19T01:05:33;29.00;55.00
27795;DHT22;15176;50.844;4.412;2022-07-19T01:08:00;29.00;55.70
27795;DHT22;15176;50.844;4.412;2022-07-19T01:10:26;29.00;56.80
27795;DHT22;15176;50.844;4.412;2022-07-19T01:12:53;28.90;56.50
27795;DHT22;15176;50.844;4.412;2022-07-19T01:15:24;28.90;57.30
27795;DHT22;15176;50.844;4.412;2022-07-19T01:17:51;28.90;58.60
27795;DHT22;15176;50.844;4.412;2022-07-19T01:20:19;28.80;59.80
27795;DHT22;15176;50.844;4.412;2022-07-19T01:22:46;28.80;60.20
27795;DHT22;15176;50.844;4.412;2022-07-19T01:25:12;28.80;60.70
27795;DHT22;15176;50.844;4.412;2022-07-19T01:27:44;28.80;62.90
27795;DHT22;15176;50.844;4.412;2022-07-19T01:30:17;28.80;62.40
27795;DHT22;15176;50.844;4.412;2022-07-19T01:32:44;28.80;59.30
27795;DHT22;15176;50.844;4.412;2022-07-19T01:35:11;28.80;63.40
27795;DHT22;15176;50.844;4.412;2022-07-19T01:37:37;28.90;63.70
27795;DHT22;15176;50.844;4.412;2022-07-19T01:40:04;28.80;62.90
27795;DHT22;15176;50.844;4.412;2022-07-19T01:42:30;28.80;62.90
27795;DHT22;15176;50.844;4.412;2022-07-19T01:44:56;28.80;61.30
27795;DHT22;15176;50.844;4.412;2022-07-19T01:47:21;28.70;63.40
27795;DHT22;15176;50.844;4.412;2022-07-19T01:49:47;28.70;64.60
27795;DHT22;15176;50.844;4.412;2022-07-19T01:52:13;28.70;64.90
27795;DHT22;15176;50.844;4.412;2022-07-19T01:54:38;28.70;63.10
27795;DHT22;15176;50.844;4.412;2022-07-19T01:57:04;28.70;58.30
27795;DHT22;15176;50.844;4.412;2022-07-19T01:59:29;28.60;58.80
27795;DHT22;15176;50.844;4.412;2022-07-19T02:01:55;28.60;63.50
27795;DHT22;15176;50.844;4.412;2022-07-19T02:04:21;28.70;62.90
27795;DHT22;15176;50.844;4.412;2022-07-19T02:06:46;28.60;63.40
27795;DHT22;15176;50.844;4.412;2022-07-19T02:09:12;28.60;64.80
27795;DHT22;15176;50.844;4.412;2022-07-19T02:11:37;28.70;64.80
27795;DHT22;15176;50.844;4.412;2022-07-19T02:14:08;28.60;64.20
27795;DHT22;15176;50.844;4.412;2022-07-19T02:16:38;28.70;65.70
27795;DHT22;15176;50.844;4.412;2022-07-19T02:19:04;28.70;67.10
27795;DHT22;15176;50.844;4.412;2022-07-19T02:21:31;28.60;65.30
27795;DHT22;15176;50.844;4.412;2022-07-19T02:23:57;28.70;65.80
27795;DHT22;15176;50.844;4.412;2022-07-19T02:26:23;28.60;66.20
27795;DHT22;15176;50.844;4.412;2022-07-19T02:28:48;28.60;66.00
27795;DHT22;15176;50.844;4.412;2022-07-19T02:31:14;28.60;66.60
27795;DHT22;15176;50.844;4.412;2022-07-19T02:33:40;28.50;64.80
27795;DHT22;15176;50.844;4.412;2022-07-19T02:36:05;28.60;66.10
27795;DHT22;15176;50.844;4.412;2022-07-19T02:38:31;28.40;64.10
27795;DHT22;15176;50.844;4.412;2022-07-19T02:40:57;28.40;66.20
27795;DHT22;15176;50.844;4.412;2022-07-19T02:43:23;28.30;66.50
27795;DHT22;15176;50.844;4.412;2022-07-19T02:45:49;28.40;65.40
27795;DHT22;15176;50.844;4.412;2022-07-19T02:48:14;28.30;66.20
27795;DHT22;15176;50.844;4.412;2022-07-19T02:50:41;28.30;64.90
27795;DHT22;15176;50.844;4.412;2022-07-19T02:53:07;28.30;67.70
27795;DHT22;15176;50.844;4.412;2022-07-19T02:55:33;28.20;59.90
27795;DHT22;15176;50.844;4.412;2022-07-19T02:57:58;28.10;64.50
27795;DHT22;15176;50.844;4.412;2022-07-19T03:00:24;28.20;59.40
27795;DHT22;15176;50.844;4.412;2022-07-19T03:02:50;28.20;60.00
27795;DHT22;15176;50.844;4.412;2022-07-19T03:05:16;28.10;64.80
27795;DHT22;15176;50.844;4.412;2022-07-19T03:07:41;28.10;65.80
27795;DHT22;15176;50.844;4.412;2022-07-19T03:10:07;28.10;61.70
27795;DHT22;15176;50.844;4.412;2022-07-19T03:12:33;28.10;66.40
27795;DHT22;15176;50.844;4.412;2022-07-19T03:14:58;28.10;65.60
27795;DHT22;15176;50.844;4.412;2022-07-19T03:17:24;28.10;65.00
27795;DHT22;15176;50.844;4.412;2022-07-19T03:19:50;27.50;59.60
27795;DHT22;15176;50.844;4.412;2022-07-19T03:22:15;27.60;66.10
27795;DHT22;15176;50.844;4.412;2022-07-19T03:24:41;27.60;63.10
27795;DHT22;15176;50.844;4.412;2022-07-19T03:27:07;27.80;67.40
27795;DHT22;15176;50.844;4.412;2022-07-19T03:29:32;27.70;65.20
27795;DHT22;15176;50.844;4.412;2022-07-19T03:31:58;27.70;67.90
27795;DHT22;15176;50.844;4.412;2022-07-19T03:34:24;27.80;66.90
27795;DHT22;15176;50.844;4.412;2022-07-19T03:36:50;27.80;67.80
27795;DHT22;15176;50.844;4.412;2022-07-19T03:39:16;27.80;65.10
27795;DHT22;15176;50.844;4.412;2022-07-19T03:41:41;27.80;66.10
27795;DHT22;15176;50.844;4.412;2022-07-19T03:44:07;27.80;68.90
27795;DHT22;15176;50.844;4.412;2022-07-19T03:46:32;27.90;69.30
27795;DHT22;15176;50.844;4.412;2022-07-19T03:48:58;27.80;63.60
27795;DHT22;15176;50.844;4.412;2022-07-19T03:51:24;27.80;65.70
27795;DHT22;15176;50.844;4.412;2022-07-19T03:53:49;27.70;64.70
27795;DHT22;15176;50.844;4.412;2022-07-19T03:56:15;27.40;58.70
27795;DHT22;15176;50.844;4.412;2022-07-19T03:58:43;27.30;61.80
27795;DHT22;15176;50.844;4.412;2022-07-19T04:01:09;27.50;67.90
27795;DHT22;15176;50.844;4.412;2022-07-19T04:03:38;27.70;65.00
27795;DHT22;15176;50.844;4.412;2022-07-19T04:06:09;27.60;63.30
27795;DHT22;15176;50.844;4.412;2022-07-19T04:08:35;27.70;61.30
27795;DHT22;15176;50.844;4.412;2022-07-19T04:11:01;27.70;61.60
27795;DHT22;15176;50.844;4.412;2022-07-19T04:13:27;27.80;60.70
27795;DHT22;15176;50.844;4.412;2022-07-19T04:15:52;27.30;59.10
27795;DHT22;15176;50.844;4.412;2022-07-19T04:18:18;27.20;60.00
27795;DHT22;15176;50.844;4.412;2022-07-19T04:20:44;26.90;60.10
27795;DHT22;15176;50.844;4.412;2022-07-19T04:23:09;26.80;62.30
27795;DHT22;15176;50.844;4.412;2022-07-19T04:25:35;26.90;63.90
27795;DHT22;15176;50.844;4.412;2022-07-19T04:28:02;26.80;61.60
27795;DHT22;15176;50.844;4.412;2022-07-19T04:30:28;26.80;60.30
27795;DHT22;15176;50.844;4.412;2022-07-19T04:32:53;26.80;60.60
27795;DHT22;15176;50.844;4.412;2022-07-19T04:35:19;26.80;64.20
27795;DHT22;15176;50.844;4.412;2022-07-19T04:37:45;26.90;62.90
27795;DHT22;15176;50.844;4.412;2022-07-19T04:40:11;27.00;63.70
27795;DHT22;15176;50.844;4.412;2022-07-19T04:42:37;26.80;63.10
27795;DHT22;15176;50.844;4.412;2022-07-19T04:45:03;26.80;63.10
27795;DHT22;15176;50.844;4.412;2022-07-19T04:47:29;26.50;63.30
27795;DHT22;15176;50.844;4.412;2022-07-19T04:49:55;26.40;63.10
27795;DHT22;15176;50.844;4.412;2022-07-19T04:52:20;26.30;62.00
27795;DHT22;15176;50.844;4.412;2022-07-19T04:54:46;26.40;65.20
27795;DHT22;15176;50.844;4.412;2022-07-19T04:57:11;26.40;64.60
27795;DHT22;15176;50.844;4.412;2022-07-19T04:59:39;26.50;64.20
27795;DHT22;15176;50.844;4.412;2022-07-19T05:02:04;26.40;63.60
27795;DHT22;15176;50.844;4.412;2022-07-19T05:04:30;26.30;63.50
27795;DHT22;15176;50.844;4.412;2022-07-19T05:06:56;26.20;64.60
27795;DHT22;15176;50.844;4.412;2022-07-19T05:09:26;26.10;68.60
27795;DHT22;15176;50.844;4.412;2022-07-19T05:11:52;26.20;65.10
27795;DHT22;15176;50.844;4.412;2022-07-19T05:14:19;26.40;68.00
27795;DHT22;15176;50.844;4.412;2022-07-19T05:16:45;26.60;64.70
27795;DHT22;15176;50.844;4.412;2022-07-19T05:19:11;26.60;64.30
27795;DHT22;15176;50.844;4.412;2022-07-19T05:21:40;26.40;65.70
27795;DHT22;15176;50.844;4.412;2022-07-19T05:24:06;26.20;65.80
27795;DHT22;15176;50.844;4.412;2022-07-19T05:26:31;26.30;65.80
27795;DHT22;15176;50.844;4.412;2022-07-19T05:28:59;26.40;66.80
27795;DHT22;15176;50.844;4.412;2022-07-19T05:31:24;26.60;65.00
27795;DHT22;15176;50.844;4.412;2022-07-19T05:33:51;26.60;65.30
27795;DHT22;15176;50.844;4.412;2022-07-19T05:36:17;26.80;65.20
27795;DHT22;15176;50.844;4.412;2022-07-19T05:38:43;26.60;65.80
27795;DHT22;15176;50.844;4.412;2022-07-19T05:41:09;26.60;66.40
27795;DHT22;15176;50.844;4.412;2022-07-19T05:43:37;26.70;65.10
27795;DHT22;15176;50.844;4.412;2022-07-19T05:46:04;26.90;66.00
27795;DHT22;15176;50.844;4.412;2022-07-19T05:48:30;27.10;67.00
27795;DHT22;15176;50.844;4.412;2022-07-19T05:50:56;27.30;64.70
27795;DHT22;15176;50.844;4.412;2022-07-19T05:53:22;27.40;64.70
27795;DHT22;15176;50.844;4.412;2022-07-19T05:55:49;27.50;64.90
27795;DHT22;15176;50.844;4.412;2022-07-19T05:58:15;27.60;63.50
27795;DHT22;15176;50.844;4.412;2022-07-19T06:00:44;27.70;64.50
27795;DHT22;15176;50.844;4.412;2022-07-19T06:03:29;27.90;63.90
27795;DHT22;15176;50.844;4.412;2022-07-19T06:05:55;28.00;62.10
27795;DHT22;15176;50.844;4.412;2022-07-19T06:08:21;27.80;63.20
27795;DHT22;15176;50.844;4.412;2022-07-19T06:10:47;28.00;62.70
27795;DHT22;15176;50.844;4.412;2022-07-19T06:13:12;28.20;62.60
27795;DHT22;15176;50.844;4.412;2022-07-19T06:15:38;28.20;61.90
27795;DHT22;15176;50.844;4.412;2022-07-19T06:18:05;28.50;60.80
27795;DHT22;15176;50.844;4.412;2022-07-19T06:20:30;28.50;59.40
27795;DHT22;15176;50.844;4.412;2022-07-19T06:22:57;28.20;60.90
27795;DHT22;15176;50.844;4.412;2022-07-19T06:25:23;27.90;60.90
27795;DHT22;15176;50.844;4.412;2022-07-19T06:27:48;27.60;62.90
27795;DHT22;15176;50.844;4.412;2022-07-19T06:30:14;27.80;63.80
27795;DHT22;15176;50.844;4.412;2022-07-19T06:32:40;28.00;61.20
27795;DHT22;15176;50.844;4.412;2022-07-19T06:35:06;28.10;61.10
27795;DHT22;15176;50.844;4.412;2022-07-19T06:37:31;28.30;61.20
27795;DHT22;15176;50.844;4.412;2022-07-19T06:39:57;28.30;60.40
27795;DHT22;15176;50.844;4.412;2022-07-19T06:42:23;28.30;62.10
27795;DHT22;15176;50.844;4.412;2022-07-19T06:44:48;28.50;60.90
27795;DHT22;15176;50.844;4.412;2022-07-19T06:47:14;28.70;60.30
27795;DHT22;15176;50.844;4.412;2022-07-19T06:49:40;28.80;59.60
27795;DHT22;15176;50.844;4.412;2022-07-19T06:52:06;28.90;58.80
27795;DHT22;15176;50.844;4.412;2022-07-19T06:54:31;28.80;58.90
27795;DHT22;15176;50.844;4.412;2022-07-19T06:56:57;29.20;59.00
27795;DHT22;15176;50.844;4.412;2022-07-19T06:59:23;29.40;57.50
27795;DHT22;15176;50.844;4.412;2022-07-19T07:01:48;29.60;58.40
27795;DHT22;15176;50.844;4.412;2022-07-19T07:04:14;29.70;57.00
27795;DHT22;15176;50.844;4.412;2022-07-19T07:06:41;29.80;57.10
27795;DHT22;15176;50.844;4.412;2022-07-19T07:09:07;30.00;55.40
27795;DHT22;15176;50.844;4.412;2022-07-19T07:11:33;30.20;56.90
27795;DHT22;15176;50.844;4.412;2022-07-19T07:13:58;30.10;55.10
27795;DHT22;15176;50.844;4.412;2022-07-19T07:16:24;30.40;56.90
27795;DHT22;15176;50.844;4.412;2022-07-19T07:18:49;30.50;54.70
27795;DHT22;15176;50.844;4.412;2022-07-19T07:21:15;30.60;55.70
27795;DHT22;15176;50.844;4.412;2022-07-19T07:23:41;30.60;54.10
27795;DHT22;15176;50.844;4.412;2022-07-19T07:26:06;30.70;54.10
27795;DHT22;15176;50.844;4.412;2022-07-19T07:28:32;30.70;55.00
27795;DHT22;15176;50.844;4.412;2022-07-19T07:30:58;31.10;54.10
27795;DHT22;15176;50.844;4.412;2022-07-19T07:33:23;31.20;53.30
27795;DHT22;15176;50.844;4.412;2022-07-19T07:35:49;31.30;53.00
27795;DHT22;15176;50.844;4.412;2022-07-19T07:38:15;31.50;52.70
27795;DHT22;15176;50.844;4.412;2022-07-19T07:40:41;31.90;52.40
27795;DHT22;15176;50.844;4.412;2022-07-19T07:43:06;31.90;52.10
27795;DHT22;15176;50.844;4.412;2022-07-19T07:45:32;32.00;51.70
27795;DHT22;15176;50.844;4.412;2022-07-19T07:47:58;32.10;51.60
27795;DHT22;15176;50.844;4.412;2022-07-19T07:50:24;32.20;52.30
27795;DHT22;15176;50.844;4.412;2022-07-19T07:52:50;32.40;51.90
27795;DHT22;15176;50.844;4.412;2022-07-19T07:55:16;32.60;51.90
27795;DHT22;15176;50.844;4.412;2022-07-19T07:57:42;32.60;51.10
27795;DHT22;15176;50.844;4.412;2022-07-19T08:00:08;32.80;50.90
27795;DHT22;15176;50.844;4.412;2022-07-19T08:02:41;33.00;51.00
27795;DHT22;15176;50.844;4.412;2022-07-19T08:05:07;33.30;50.20
27795;DHT22;15176;50.844;4.412;2022-07-19T08:07:34;33.30;50.10
27795;DHT22;15176;50.844;4.412;2022-07-19T08:10:00;33.40;50.00
27795;DHT22;15176;50.844;4.412;2022-07-19T08:12:26;33.20;50.00
27795;DHT22;15176;50.844;4.412;2022-07-19T08:14:51;33.50;49.70
27795;DHT22;15176;50.844;4.412;2022-07-19T08:17:17;33.50;49.70
27795;DHT22;15176;50.844;4.412;2022-07-19T08:19:43;33.80;49.60
27795;DHT22;15176;50.844;4.412;2022-07-19T08:22:08;33.90;50.10
27795;DHT22;15176;50.844;4.412;2022-07-19T08:24:34;34.00;48.70
27795;DHT22;15176;50.844;4.412;2022-07-19T08:27:00;34.20;48.50
27795;DHT22;15176;50.844;4.412;2022-07-19T08:29:25;34.50;47.50
27795;DHT22;15176;50.844;4.412;2022-07-19T08:31:51;34.60;47.50
27795;DHT22;15176;50.844;4.412;2022-07-19T08:34:17;34.50;47.30
27795;DHT22;15176;50.844;4.412;2022-07-19T08:36:42;34.50;47.20
27795;DHT22;15176;50.844;4.412;2022-07-19T08:39:08;34.70;46.90
27795;DHT22;15176;50.844;4.412;2022-07-19T08:41:34;35.10;45.10
27795;DHT22;15176;50.844;4.412;2022-07-19T08:44:03;35.10;45.70
27795;DHT22;15176;50.844;4.412;2022-07-19T08:46:29;35.10;45.20
27795;DHT22;15176;50.844;4.412;2022-07-19T08:48:55;35.30;45.40
27795;DHT22;15176;50.844;4.412;2022-07-19T08:51:21;35.30;44.90
27795;DHT22;15176;50.844;4.412;2022-07-19T08:53:49;35.40;44.80
27795;DHT22;15176;50.844;4.412;2022-07-19T08:56:15;35.60;44.20
27795;DHT22;15176;50.844;4.412;2022-07-19T08:59:01;35.80;43.30
27795;DHT22;15176;50.844;4.412;2022-07-19T09:01:27;36.00;43.20
27795;DHT22;15176;50.844;4.412;2022-07-19T09:04:04;36.20;43.30
27795;DHT22;15176;50.844;4.412;2022-07-19T09:06:49;36.60;42.40
27795;DHT22;15176;50.844;4.412;2022-07-19T09:09:35;36.40;42.00
27795;DHT22;15176;50.844;4.412;2022-07-19T09:12:05;36.10;43.10
27795;DHT22;15176;50.844;4.412;2022-07-19T09:14:36;36.20;41.00
27795;DHT22;15176;50.844;4.412;2022-07-19T09:17:06;36.30;40.80
27795;DHT22;15176;50.844;4.412;2022-07-19T09:19:39;36.70;41.20
27795;DHT22;15176;50.844;4.412;2022-07-19T09:22:10;36.70;41.00
27795;DHT22;15176;50.844;4.412;2022-07-19T09:24:38;37.00;40.70
27795;DHT22;15176;50.844;4.412;2022-07-19T09:27:13;37.00;39.70
27795;DHT22;15176;50.844;4.412;2022-07-19T09:29:42;37.20;38.30
27795;DHT22;15176;50.844;4.412;2022-07-19T09:32:11;37.40;39.70
27795;DHT22;15176;50.844;4.412;2022-07-19T09:34:50;37.30;39.70
27795;DHT22;15176;50.844;4.412;2022-07-19T09:37:22;37.20;38.40
27795;DHT22;15176;50.844;4.412;2022-07-19T09:39:50;37.20;39.40
27795;DHT22;15176;50.844;4.412;2022-07-19T09:45:07;37.90;39.20
27795;DHT22;15176;50.844;4.412;2022-07-19T09:47:37;37.90;38.50
27795;DHT22;15176;50.844;4.412;2022-07-19T09:50:10;38.00;39.00
27795;DHT22;15176;50.844;4.412;2022-07-19T09:52:36;38.00;37.00
27795;DHT22;15176;50.844;4.412;2022-07-19T09:55:04;38.30;37.00
27795;DHT22;15176;50.844;4.412;2022-07-19T09:57:33;38.40;36.30
27795;DHT22;15176;50.844;4.412;2022-07-19T10:00:03;38.30;35.40
27795;DHT22;15176;50.844;4.412;2022-07-19T10:02:35;38.20;36.00
27795;DHT22;15176;50.844;4.412;2022-07-19T10:05:04;38.30;35.50
27795;DHT22;15176;50.844;4.412;2022-07-19T10:07:32;38.30;35.50
27795;DHT22;15176;50.844;4.412;2022-07-19T10:10:02;38.30;36.80
27795;DHT22;15176;50.844;4.412;2022-07-19T10:12:29;38.40;35.30
27795;DHT22;15176;50.844;4.412;2022-07-19T10:15:00;38.70;35.50
27795;DHT22;15176;50.844;4.412;2022-07-19T10:19:51;39.10;32.80
27795;DHT22;15176;50.844;4.412;2022-07-19T10:22:21;39.20;33.50
27795;DHT22;15176;50.844;4.412;2022-07-19T10:27:45;39.20;32.80
27795;DHT22;15176;50.844;4.412;2022-07-19T10:32:38;39.10;32.80
27795;DHT22;15176;50.844;4.412;2022-07-19T10:37:45;39.20;33.00
27795;DHT22;15176;50.844;4.412;2022-07-19T10:40:11;39.40;31.50
27795;DHT22;15176;50.844;4.412;2022-07-19T10:43:04;39.40;32.20
27795;DHT22;15176;50.844;4.412;2022-07-19T10:45:30;39.60;31.80
27795;DHT22;15176;50.844;4.412;2022-07-19T10:48:01;39.80;31.10
27795;DHT22;15176;50.844;4.412;2022-07-19T10:50:43;39.80;31.40
27795;DHT22;15176;50.844;4.412;2022-07-19T10:53:09;40.10;31.10
27795;DHT22;15176;50.844;4.412;2022-07-19T10:55:35;40.10;30.50
27795;DHT22;15176;50.844;4.412;2022-07-19T11:00:31;40.10;30.80
27795;DHT22;15176;50.844;4.412;2022-07-19T11:06:06;40.30;30.70
27795;DHT22;15176;50.844;4.412;2022-07-19T11:08:33;40.40;29.90
27795;DHT22;15176;50.844;4.412;2022-07-19T11:11:10;40.40;30.20
27795;DHT22;15176;50.844;4.412;2022-07-19T11:13:37;40.60;30.00
27795;DHT22;15176;50.844;4.412;2022-07-19T11:16:03;40.70;30.20
27795;DHT22;15176;50.844;4.412;2022-07-19T11:18:30;41.00;30.00
27795;DHT22;15176;50.844;4.412;2022-07-19T11:20:57;41.30;29.70
27795;DHT22;15176;50.844;4.412;2022-07-19T11:23:24;41.60;29.60
27795;DHT22;15176;50.844;4.412;2022-07-19T11:26:08;41.50;29.30
27795;DHT22;15176;50.844;4.412;2022-07-19T11:28:34;41.20;29.30
27795;DHT22;15176;50.844;4.412;2022-07-19T11:31:09;41.00;28.80
27795;DHT22;15176;50.844;4.412;2022-07-19T11:33:35;40.70;29.90
27795;DHT22;15176;50.844;4.412;2022-07-19T11:36:01;40.70;30.70
27795;DHT22;15176;50.844;4.412;2022-07-19T11:38:35;41.00;29.70
27795;DHT22;15176;50.844;4.412;2022-07-19T11:41:01;40.60;30.10
27795;DHT22;15176;50.844;4.412;2022-07-19T11:43:29;40.60;30.10
27795;DHT22;15176;50.844;4.412;2022-07-19T11:45:55;40.90;29.90
27795;DHT22;15176;50.844;4.412;2022-07-19T11:48:29;40.90;30.00
27795;DHT22;15176;50.844;4.412;2022-07-19T11:51:09;41.30;29.90
27795;DHT22;15176;50.844;4.412;2022-07-19T11:53:37;41.40;29.30
27795;DHT22;15176;50.844;4.412;2022-07-19T11:56:05;41.20;28.90
27795;DHT22;15176;50.844;4.412;2022-07-19T11:58:32;41.00;29.40
27795;DHT22;15176;50.844;4.412;2022-07-19T12:01:03;40.80;29.10
27795;DHT22;15176;50.844;4.412;2022-07-19T12:03:29;41.10;29.50
27795;DHT22;15176;50.844;4.412;2022-07-19T12:06:00;41.40;29.70
27795;DHT22;15176;50.844;4.412;2022-07-19T12:08:41;41.50;28.40
27795;DHT22;15176;50.844;4.412;2022-07-19T12:11:22;41.20;28.90
27795;DHT22;15176;50.844;4.412;2022-07-19T12:13:50;41.20;29.50
27795;DHT22;15176;50.844;4.412;2022-07-19T12:16:16;41.20;29.40
27795;DHT22;15176;50.844;4.412;2022-07-19T12:18:48;41.00;29.10
27795;DHT22;15176;50.844;4.412;2022-07-19T12:26:40;41.20;29.00
27795;DHT22;15176;50.844;4.412;2022-07-19T12:31:58;41.50;28.40
27795;DHT22;15176;50.844;4.412;2022-07-19T12:34:25;41.70;28.60
27795;DHT22;15176;50.844;4.412;2022-07-19T12:36:52;41.70;29.00
27795;DHT22;15176;50.844;4.412;2022-07-19T12:39:18;42.00;28.20
27795;DHT22;15176;50.844;4.412;2022-07-19T12:42:05;41.40;27.90
27795;DHT22;15176;50.844;4.412;2022-07-19T12:44:33;41.10;28.80
27795;DHT22;15176;50.844;4.412;2022-07-19T12:47:00;41.50;28.80
27795;DHT22;15176;50.844;4.412;2022-07-19T12:49:43;41.60;28.40
27795;DHT22;15176;50.844;4.412;2022-07-19T12:52:10;41.70;28.30
27795;DHT22;15176;50.844;4.412;2022-07-19T12:54:35;41.50;28.60
27795;DHT22;15176;50.844;4.412;2022-07-19T12:57:01;41.60;28.50
27795;DHT22;15176;50.844;4.412;2022-07-19T12:59:27;41.80;28.60
27795;DHT22;15176;50.844;4.412;2022-07-19T13:02:14;41.30;28.30
27795;DHT22;15176;50.844;4.412;2022-07-19T13:04:41;41.50;28.60
27795;DHT22;15176;50.844;4.412;2022-07-19T13:07:08;41.90;28.30
27795;DHT22;15176;50.844;4.412;2022-07-19T13:09:35;41.60;28.80
27795;DHT22;15176;50.844;4.412;2022-07-19T13:12:02;41.90;28.50
27795;DHT22;15176;50.844;4.412;2022-07-19T13:14:29;42.20;28.30
27795;DHT22;15176;50.844;4.412;2022-07-19T13:16:55;42.00;27.20
27795;DHT22;15176;50.844;4.412;2022-07-19T13:19:21;41.20;28.00
27795;DHT22;15176;50.844;4.412;2022-07-19T13:21:47;41.50;28.60
27795;DHT22;15176;50.844;4.412;2022-07-19T13:24:13;41.30;27.90
27795;DHT22;15176;50.844;4.412;2022-07-19T13:26:39;41.20;27.70
27795;DHT22;15176;50.844;4.412;2022-07-19T13:29:05;41.40;28.60
27795;DHT22;15176;50.844;4.412;2022-07-19T13:31:31;41.50;27.10
27795;DHT22;15176;50.844;4.412;2022-07-19T13:33:56;41.40;26.80
27795;DHT22;15176;50.844;4.412;2022-07-19T13:36:22;41.20;26.80
27795;DHT22;15176;50.844;4.412;2022-07-19T13:38:48;41.00;27.30
27795;DHT22;15176;50.844;4.412;2022-07-19T13:41:15;41.40;27.30
27795;DHT22;15176;50.844;4.412;2022-07-19T13:43:45;41.70;27.60
27795;DHT22;15176;50.844;4.412;2022-07-19T13:46:12;41.80;26.80
27795;DHT22;15176;50.844;4.412;2022-07-19T13:48:38;41.80;26.50
27795;DHT22;15176;50.844;4.412;2022-07-19T13:51:04;41.80;26.40
27795;DHT22;15176;50.844;4.412;2022-07-19T13:53:30;41.80;26.80
27795;DHT22;15176;50.844;4.412;2022-07-19T13:55:56;42.10;26.90
27795;DHT22;15176;50.844;4.412;2022-07-19T13:58:22;42.00;26.90
27795;DHT22;15176;50.844;4.412;2022-07-19T14:00:48;42.30;26.00
27795;DHT22;15176;50.844;4.412;2022-07-19T14:03:15;42.40;25.50
27795;DHT22;15176;50.844;4.412;2022-07-19T14:05:46;42.10;25.20
27795;DHT22;15176;50.844;4.412;2022-07-19T14:08:13;42.00;24.60
27795;DHT22;15176;50.844;4.412;2022-07-19T14:10:40;42.20;25.50
27795;DHT22;15176;50.844;4.412;2022-07-19T14:13:06;42.20;25.60
27795;DHT22;15176;50.844;4.412;2022-07-19T14:15:32;42.10;24.40
27795;DHT22;15176;50.844;4.412;2022-07-19T14:17:58;41.80;24.10
27795;DHT22;15176;50.844;4.412;2022-07-19T14:20:24;41.30;25.20
27795;DHT22;15176;50.844;4.412;2022-07-19T14:22:50;41.20;24.90
27795;DHT22;15176;50.844;4.412;2022-07-19T14:25:16;40.70;25.10
27795;DHT22;15176;50.844;4.412;2022-07-19T14:27:42;40.90;24.90
27795;DHT22;15176;50.844;4.412;2022-07-19T14:30:08;40.70;24.40
27795;DHT22;15176;50.844;4.412;2022-07-19T14:32:34;40.80;25.30
27795;DHT22;15176;50.844;4.412;2022-07-19T14:35:00;40.80;24.30
27795;DHT22;15176;50.844;4.412;2022-07-19T14:37:26;41.10;24.30
27795;DHT22;15176;50.844;4.412;2022-07-19T14:39:51;40.60;24.10
27795;DHT22;15176;50.844;4.412;2022-07-19T14:42:17;40.70;25.30
27795;DHT22;15176;50.844;4.412;2022-07-19T14:44:43;40.50;25.70
27795;DHT22;15176;50.844;4.412;2022-07-19T14:47:09;40.80;25.90
27795;DHT22;15176;50.844;4.412;2022-07-19T14:49:36;41.00;25.50
27795;DHT22;15176;50.844;4.412;2022-07-19T14:52:02;41.00;25.90
27795;DHT22;15176;50.844;4.412;2022-07-19T14:54:28;40.70;25.40
27795;DHT22;15176;50.844;4.412;2022-07-19T14:56:54;40.60;24.70
27795;DHT22;15176;50.844;4.412;2022-07-19T14:59:21;40.60;24.50
27795;DHT22;15176;50.844;4.412;2022-07-19T15:01:47;40.50;24.80
27795;DHT22;15176;50.844;4.412;2022-07-19T15:04:13;40.70;24.20
27795;DHT22;15176;50.844;4.412;2022-07-19T15:06:38;40.90;24.50
27795;DHT22;15176;50.844;4.412;2022-07-19T15:09:04;40.90;24.90
27795;DHT22;15176;50.844;4.412;2022-07-19T15:11:30;41.00;25.00
27795;DHT22;15176;50.844;4.412;2022-07-19T15:13:58;41.00;24.90
27795;DHT22;15176;50.844;4.412;2022-07-19T15:16:24;40.60;25.60
27795;DHT22;15176;50.844;4.412;2022-07-19T15:18:51;40.60;26.10
27795;DHT22;15176;50.844;4.412;2022-07-19T15:21:17;40.10;25.40
27795;DHT22;15176;50.844;4.412;2022-07-19T15:23:43;40.00;26.30
27795;DHT22;15176;50.844;4.412;2022-07-19T15:26:09;39.70;25.80
27795;DHT22;15176;50.844;4.412;2022-07-19T15:28:35;39.70;26.30
27795;DHT22;15176;50.844;4.412;2022-07-19T15:31:02;39.90;26.40
27795;DHT22;15176;50.844;4.412;2022-07-19T15:33:28;39.50;26.40
27795;DHT22;15176;50.844;4.412;2022-07-19T15:35:55;39.50;26.20
27795;DHT22;15176;50.844;4.412;2022-07-19T15:38:21;39.70;25.90
27795;DHT22;15176;50.844;4.412;2022-07-19T15:40:46;39.60;25.70
27795;DHT22;15176;50.844;4.412;2022-07-19T15:43:12;39.30;25.90
27795;DHT22;15176;50.844;4.412;2022-07-19T15:45:38;39.30;26.30
27795;DHT22;15176;50.844;4.412;2022-07-19T15:48:03;39.20;25.90
27795;DHT22;15176;50.844;4.412;2022-07-19T15:50:29;39.30;26.00
27795;DHT22;15176;50.844;4.412;2022-07-19T15:52:55;39.50;26.80
27795;DHT22;15176;50.844;4.412;2022-07-19T15:55:20;39.10;26.60
27795;DHT22;15176;50.844;4.412;2022-07-19T15:57:46;39.10;25.60